sensor_id;sensor_type;location;lat;lon;timestamp;temperature;humidity
17639;DHT22;8938;53.546;9.954;2022-12-07T00:00:55;7.70;99.90
17639;DHT22;8938;53.546;9.954;2022-12-07T00:03:21;7.70;99.90
17639;DHT22;8938;53.546;9.954;2022-12-07T00:05:46;7.80;99.90
17639;DHT22;8938;53.546;9.954;2022-12-07T00:08:12;7.80;99.90
17639;DHT22;8938;53.546;9.954;2022-12-07T00:10:37;7.80;99.90
17639;DHT22;8938;53.546;9.954;2022-12-07T00:13:03;7.90;99.90
17639;DHT22;8938;53.546;9.954;2022-12-07T00:15:28;7.90;99.90
17639;DHT22;8938;53.546;9.954;2022-12-07T00:17:54;8.00;99.90
17639;DHT22;8938;53.546;9.954;2022-12-07T00:20:20;8.00;99.90
17639;DHT22;8938;53.546;9.954;2022-12-07T00:22:45;8.10;99.90
17639;DHT22;8938;53.546;9.954;2022-12-07T00:25:11;7.90;99.90
17639;DHT22;8938;53.546;9.954;2022-12-07T00:27:36;7.90;99.90
17639;DHT22;8938;53.546;9.954;2022-12-07T00:30:02;7.90;99.90
17639;DHT22;8938;53.546;9.954;2022-12-07T00:32:27;7.80;99.90
17639;DHT22;8938;53.546;9.954;2022-12-07T00:34:53;7.70;99.90
17639;DHT22;8938;53.546;9.954;2022-12-07T00:37:18;7.80;99.90
17639;DHT22;8938;53.546;9.954;2022-12-07T00:39:46;7.80;99.90
17639;DHT22;8938;53.546;9.954;2022-12-07T00:42:11;7.70;99.90
17639;DHT22;8938;53.546;9.954;2022-12-07T00:44:37;7.70;99.90
17639;DHT22;8938;53.546;9.954;2022-12-07T00:47:02;7.80;99.90
17639;DHT22;8938;53.546;9.954;2022-12-07T00:49:28;8.00;99.90
17639;DHT22;8938;53.546;9.954;2022-12-07T00:51:54;7.90;99.90
17639;DHT22;8938;53.546;9.954;2022-12-07T00:54:19;7.90;99.90
17639;DHT22;8938;53.546;9.954;2022-12-07T00:56:45;7.90;99.90
17639;DHT22;8938;53.546;9.954;2022-12-07T00:59:13;7.90;99.90
17639;DHT22;8938;53.546;9.954;2022-12-07T01:01:41;8.10;99.90
17639;DHT22;8938;53.546;9.954;2022-12-07T01:04:07;7.90;99.90
17639;DHT22;8938;53.546;9.954;2022-12-07T01:06:33;7.90;99.90
17639;DHT22;8938;53.546;9.954;2022-12-07T01:08:59;7.90;99.90
17639;DHT22;8938;53.546;9.954;2022-12-07T01:11:27;7.80;99.90
17639;DHT22;8938;53.546;9.954;2022-12-07T01:13:55;7.80;99.90
17639;DHT22;8938;53.546;9.954;2022-12-07T01:16:22;7.80;99.90
17639;DHT22;8938;53.546;9.954;2022-12-07T01:18:49;7.70;99.90
17639;DHT22;8938;53.546;9.954;2022-12-07T01:21:18;7.70;99.90
17639;DHT22;8938;53.546;9.954;2022-12-07T01:23:44;7.70;99.90
17639;DHT22;8938;53.546;9.954;2022-12-07T01:26:11;7.80;99.90
17639;DHT22;8938;53.546;9.954;2022-12-07T01:28:37;7.80;99.90
17639;DHT22;8938;53.546;9.954;2022-12-07T01:31:04;7.80;99.90
17639;DHT22;8938;53.546;9.954;2022-12-07T01:33:32;7.80;99.90
17639;DHT22;8938;53.546;9.954;2022-12-07T01:36:19;7.80;99.90
17639;DHT22;8938;53.546;9.954;2022-12-07T01:38:46;7.80;99.90
17639;DHT22;8938;53.546;9.954;2022-12-07T01:41:13;7.80;99.90
17639;DHT22;8938;53.546;9.954;2022-12-07T01:44:18;7.80;99.90
17639;DHT22;8938;53.546;9.954;2022-12-07T01:46:49;7.90;99.90
17639;DHT22;8938;53.546;9.954;2022-12-07T01:52:17;7.80;99.90
17639;DHT22;8938;53.546;9.954;2022-12-07T01:54:44;7.80;99.90
17639;DHT22;8938;53.546;9.954;2022-12-07T01:57:11;7.70;99.90
17639;DHT22;8938;53.546;9.954;2022-12-07T01:59:38;7.80;99.90
17639;DHT22;8938;53.546;9.954;2022-12-07T02:02:10;7.70;99.90
17639;DHT22;8938;53.546;9.954;2022-12-07T02:04:37;7.80;99.90
17639;DHT22;8938;53.546;9.954;2022-12-07T02:07:03;7.80;99.90
17639;DHT22;8938;53.546;9.954;2022-12-07T02:09:30;7.90;99.90
17639;DHT22;8938;53.546;9.954;2022-12-07T02:11:55;7.70;99.90
17639;DHT22;8938;53.546;9.954;2022-12-07T02:14:21;7.70;99.90
17639;DHT22;8938;53.546;9.954;2022-12-07T02:22:39;7.60;99.90
17639;DHT22;8938;53.546;9.954;2022-12-07T02:25:24;7.60;99.90
17639;DHT22;8938;53.546;9.954;2022-12-07T02:28:01;7.60;99.90
17639;DHT22;8938;53.546;9.954;2022-12-07T02:30:33;7.50;99.90
17639;DHT22;8938;53.546;9.954;2022-12-07T02:33:16;7.40;99.90
17639;DHT22;8938;53.546;9.954;2022-12-07T02:35:54;7.40;99.90
17639;DHT22;8938;53.546;9.954;2022-12-07T02:39:01;7.40;99.90
17639;DHT22;8938;53.546;9.954;2022-12-07T02:41:24;7.40;99.90
17639;DHT22;8938;53.546;9.954;2022-12-07T02:43:54;7.40;99.90
17639;DHT22;8938;53.546;9.954;2022-12-07T02:46:32;7.40;99.90
17639;DHT22;8938;53.546;9.954;2022-12-07T02:48:59;7.40;99.90
17639;DHT22;8938;53.546;9.954;2022-12-07T02:51:25;7.40;99.90
17639;DHT22;8938;53.546;9.954;2022-12-07T02:53:51;7.40;99.90
17639;DHT22;8938;53.546;9.954;2022-12-07T03:10:54;7.30;99.90
17639;DHT22;8938;53.546;9.954;2022-12-07T03:18:46;7.20;99.90
17639;DHT22;8938;53.546;9.954;2022-12-07T03:22:00;7.20;99.90
17639;DHT22;8938;53.546;9.954;2022-12-07T03:24:10;7.20;99.90
17639;DHT22;8938;53.546;9.954;2022-12-07T03:26:44;7.30;99.90
17639;DHT22;8938;53.546;9.954;2022-12-07T03:29:19;7.30;99.90
17639;DHT22;8938;53.546;9.954;2022-12-07T03:31:50;7.30;99.90
17639;DHT22;8938;53.546;9.954;2022-12-07T03:34:21;7.30;99.90
17639;DHT22;8938;53.546;9.954;2022-12-07T03:36:55;7.30;99.90
17639;DHT22;8938;53.546;9.954;2022-12-07T03:40:12;7.20;99.90
17639;DHT22;8938;53.546;9.954;2022-12-07T03:42:14;7.20;99.90
17639;DHT22;8938;53.546;9.954;2022-12-07T03:44:40;7.20;99.90
17639;DHT22;8938;53.546;9.954;2022-12-07T03:47:34;7.20;99.90
17639;DHT22;8938;53.546;9.954;2022-12-07T03:50:25;7.10;99.90
17639;DHT22;8938;53.546;9.954;2022-12-07T03:52:56;7.00;99.90
17639;DHT22;8938;53.546;9.954;2022-12-07T03:55:30;7.00;99.90
17639;DHT22;8938;53.546;9.954;2022-12-07T03:58:05;7.00;99.90
17639;DHT22;8938;53.546;9.954;2022-12-07T04:00:31;7.00;99.90
17639;DHT22;8938;53.546;9.954;2022-12-07T04:02:57;7.00;99.90
17639;DHT22;8938;53.546;9.954;2022-12-07T04:05:23;7.10;99.90
17639;DHT22;8938;53.546;9.954;2022-12-07T04:07:49;7.10;99.90
17639;DHT22;8938;53.546;9.954;2022-12-07T04:10:14;7.00;99.90
17639;DHT22;8938;53.546;9.954;2022-12-07T04:12:40;6.90;99.90
17639;DHT22;8938;53.546;9.954;2022-12-07T04:15:06;6.90;99.90
17639;DHT22;8938;53.546;9.954;2022-12-07T04:17:32;6.90;99.90
17639;DHT22;8938;53.546;9.954;2022-12-07T04:19:58;6.90;99.90
17639;DHT22;8938;53.546;9.954;2022-12-07T04:22:23;6.90;99.90
17639;DHT22;8938;53.546;9.954;2022-12-07T04:24:49;6.90;99.90
17639;DHT22;8938;53.546;9.954;2022-12-07T04:27:15;6.90;99.90
17639;DHT22;8938;53.546;9.954;2022-12-07T04:29:40;6.90;99.90
17639;DHT22;8938;53.546;9.954;2022-12-07T04:32:06;6.90;99.90
17639;DHT22;8938;53.546;9.954;2022-12-07T04:34:31;7.00;99.90
17639;DHT22;8938;53.546;9.954;2022-12-07T04:36:57;6.90;99.90
17639;DHT22;8938;53.546;9.954;2022-12-07T04:39:28;6.90;99.90
17639;DHT22;8938;53.546;9.954;2022-12-07T04:41:54;7.00;99.90
17639;DHT22;8938;53.546;9.954;2022-12-07T04:44:21;7.00;99.90
17639;DHT22;8938;53.546;9.954;2022-12-07T04:46:48;7.00;99.90
17639;DHT22;8938;53.546;9.954;2022-12-07T04:49:14;7.00;99.90
17639;DHT22;8938;53.546;9.954;2022-12-07T04:51:40;7.00;99.90
17639;DHT22;8938;53.546;9.954;2022-12-07T04:54:06;7.00;99.90
17639;DHT22;8938;53.546;9.954;2022-12-07T04:56:32;7.00;99.90
17639;DHT22;8938;53.546;9.954;2022-12-07T04:58:57;7.00;99.90
17639;DHT22;8938;53.546;9.954;2022-12-07T05:01:24;7.00;99.90
17639;DHT22;8938;53.546;9.954;2022-12-07T05:03:49;7.00;99.90
17639;DHT22;8938;53.546;9.954;2022-12-07T05:06:15;7.00;99.90
17639;DHT22;8938;53.546;9.954;2022-12-07T05:08:42;7.00;99.90
17639;DHT22;8938;53.546;9.954;2022-12-07T05:11:09;7.10;99.90
17639;DHT22;8938;53.546;9.954;2022-12-07T05:13:35;7.10;99.90
17639;DHT22;8938;53.546;9.954;2022-12-07T05:16:01;7.10;99.90
17639;DHT22;8938;53.546;9.954;2022-12-07T05:18:27;7.10;99.90
17639;DHT22;8938;53.546;9.954;2022-12-07T05:20:52;7.10;99.90
17639;DHT22;8938;53.546;9.954;2022-12-07T05:23:18;7.20;99.90
17639;DHT22;8938;53.546;9.954;2022-12-07T05:25:44;7.20;99.90
17639;DHT22;8938;53.546;9.954;2022-12-07T05:28:10;7.20;99.90
17639;DHT22;8938;53.546;9.954;2022-12-07T05:30:35;7.20;99.90
17639;DHT22;8938;53.546;9.954;2022-12-07T05:33:01;7.20;99.90
17639;DHT22;8938;53.546;9.954;2022-12-07T05:35:28;7.20;99.90
17639;DHT22;8938;53.546;9.954;2022-12-07T05:37:53;7.20;99.90
17639;DHT22;8938;53.546;9.954;2022-12-07T05:40:19;7.10;99.90
17639;DHT22;8938;53.546;9.954;2022-12-07T05:42:45;7.00;99.90
17639;DHT22;8938;53.546;9.954;2022-12-07T05:45:11;7.00;99.90
17639;DHT22;8938;53.546;9.954;2022-12-07T05:47:36;7.00;99.90
17639;DHT22;8938;53.546;9.954;2022-12-07T05:50:04;7.00;99.90
17639;DHT22;8938;53.546;9.954;2022-12-07T05:52:29;7.00;99.90
17639;DHT22;8938;53.546;9.954;2022-12-07T05:54:55;7.00;99.90
17639;DHT22;8938;53.546;9.954;2022-12-07T05:57:20;7.00;99.90
17639;DHT22;8938;53.546;9.954;2022-12-07T05:59:46;7.10;99.90
17639;DHT22;8938;53.546;9.954;2022-12-07T06:02:15;7.00;99.90
17639;DHT22;8938;53.546;9.954;2022-12-07T06:04:43;7.00;99.90
17639;DHT22;8938;53.546;9.954;2022-12-07T06:07:10;7.00;99.90
17639;DHT22;8938;53.546;9.954;2022-12-07T06:09:36;7.00;99.90
17639;DHT22;8938;53.546;9.954;2022-12-07T06:12:02;7.00;99.90
17639;DHT22;8938;53.546;9.954;2022-12-07T06:14:46;6.90;99.90
17639;DHT22;8938;53.546;9.954;2022-12-07T06:17:12;6.90;99.90
17639;DHT22;8938;53.546;9.954;2022-12-07T06:19:39;7.00;99.90
17639;DHT22;8938;53.546;9.954;2022-12-07T06:22:05;6.90;99.90
17639;DHT22;8938;53.546;9.954;2022-12-07T06:24:33;6.80;99.90
17639;DHT22;8938;53.546;9.954;2022-12-07T06:26:59;6.70;99.90
17639;DHT22;8938;53.546;9.954;2022-12-07T06:29:24;6.70;99.90
17639;DHT22;8938;53.546;9.954;2022-12-07T06:31:50;6.70;99.90
17639;DHT22;8938;53.546;9.954;2022-12-07T06:34:18;6.70;99.90
17639;DHT22;8938;53.546;9.954;2022-12-07T06:36:45;6.60;99.90
17639;DHT22;8938;53.546;9.954;2022-12-07T06:39:11;6.70;99.90
17639;DHT22;8938;53.546;9.954;2022-12-07T06:41:37;6.60;99.90
17639;DHT22;8938;53.546;9.954;2022-12-07T06:44:04;6.70;99.90
17639;DHT22;8938;53.546;9.954;2022-12-07T06:46:30;7.00;99.90
17639;DHT22;8938;53.546;9.954;2022-12-07T06:48:56;6.80;99.90
17639;DHT22;8938;53.546;9.954;2022-12-07T06:51:22;6.90;99.90
17639;DHT22;8938;53.546;9.954;2022-12-07T06:53:47;6.90;99.90
17639;DHT22;8938;53.546;9.954;2022-12-07T06:56:13;6.90;99.90
17639;DHT22;8938;53.546;9.954;2022-12-07T06:58:39;6.90;99.90
17639;DHT22;8938;53.546;9.954;2022-12-07T07:01:12;6.80;99.90
17639;DHT22;8938;53.546;9.954;2022-12-07T07:03:38;6.80;99.90
17639;DHT22;8938;53.546;9.954;2022-12-07T07:06:05;6.70;99.90
17639;DHT22;8938;53.546;9.954;2022-12-07T07:08:31;6.60;99.90
17639;DHT22;8938;53.546;9.954;2022-12-07T07:10:57;6.60;99.90
17639;DHT22;8938;53.546;9.954;2022-12-07T07:13:22;6.60;99.90
17639;DHT22;8938;53.546;9.954;2022-12-07T07:15:48;6.50;99.90
17639;DHT22;8938;53.546;9.954;2022-12-07T07:18:13;6.50;99.90
17639;DHT22;8938;53.546;9.954;2022-12-07T07:20:39;6.50;99.90
17639;DHT22;8938;53.546;9.954;2022-12-07T07:23:05;6.40;99.90
17639;DHT22;8938;53.546;9.954;2022-12-07T07:25:31;6.40;99.90
17639;DHT22;8938;53.546;9.954;2022-12-07T07:27:57;6.30;99.90
17639;DHT22;8938;53.546;9.954;2022-12-07T07:30:23;6.40;99.90
17639;DHT22;8938;53.546;9.954;2022-12-07T07:32:48;6.50;99.90
17639;DHT22;8938;53.546;9.954;2022-12-07T07:35:14;6.50;99.90
17639;DHT22;8938;53.546;9.954;2022-12-07T07:37:40;6.50;99.90
17639;DHT22;8938;53.546;9.954;2022-12-07T07:40:07;6.50;99.90
17639;DHT22;8938;53.546;9.954;2022-12-07T07:42:32;6.50;99.90
17639;DHT22;8938;53.546;9.954;2022-12-07T07:44:58;6.60;99.90
17639;DHT22;8938;53.546;9.954;2022-12-07T07:47:23;6.60;99.90
17639;DHT22;8938;53.546;9.954;2022-12-07T07:49:49;6.60;99.90
17639;DHT22;8938;53.546;9.954;2022-12-07T07:52:15;6.60;99.90
17639;DHT22;8938;53.546;9.954;2022-12-07T07:54:40;6.60;99.90
17639;DHT22;8938;53.546;9.954;2022-12-07T07:57:06;6.60;99.90
17639;DHT22;8938;53.546;9.954;2022-12-07T07:59:31;6.60;99.90
17639;DHT22;8938;53.546;9.954;2022-12-07T08:01:57;6.70;99.90
17639;DHT22;8938;53.546;9.954;2022-12-07T08:04:22;6.70;99.90
17639;DHT22;8938;53.546;9.954;2022-12-07T08:06:48;6.80;99.90
17639;DHT22;8938;53.546;9.954;2022-12-07T08:09:14;6.80;99.90
17639;DHT22;8938;53.546;9.954;2022-12-07T08:11:39;6.80;99.90
17639;DHT22;8938;53.546;9.954;2022-12-07T08:14:04;6.80;99.90
17639;DHT22;8938;53.546;9.954;2022-12-07T08:16:30;6.80;99.90
17639;DHT22;8938;53.546;9.954;2022-12-07T08:18:55;6.90;99.90
17639;DHT22;8938;53.546;9.954;2022-12-07T08:21:21;7.00;99.90
17639;DHT22;8938;53.546;9.954;2022-12-07T08:23:47;7.00;99.90
17639;DHT22;8938;53.546;9.954;2022-12-07T08:26:14;7.00;99.90
17639;DHT22;8938;53.546;9.954;2022-12-07T08:28:40;7.00;99.90
17639;DHT22;8938;53.546;9.954;2022-12-07T08:31:10;7.00;99.90
17639;DHT22;8938;53.546;9.954;2022-12-07T08:33:36;7.00;99.90
17639;DHT22;8938;53.546;9.954;2022-12-07T08:36:04;7.00;99.90
17639;DHT22;8938;53.546;9.954;2022-12-07T08:38:30;7.00;99.90
17639;DHT22;8938;53.546;9.954;2022-12-07T08:40:57;7.10;99.90
17639;DHT22;8938;53.546;9.954;2022-12-07T08:43:23;7.10;99.90
17639;DHT22;8938;53.546;9.954;2022-12-07T08:46:10;7.10;99.90
17639;DHT22;8938;53.546;9.954;2022-12-07T08:48:48;7.20;99.90
17639;DHT22;8938;53.546;9.954;2022-12-07T08:51:14;7.30;99.90
17639;DHT22;8938;53.546;9.954;2022-12-07T08:53:40;7.40;99.90
17639;DHT22;8938;53.546;9.954;2022-12-07T08:56:07;7.40;99.90
17639;DHT22;8938;53.546;9.954;2022-12-07T08:58:34;7.40;99.90
17639;DHT22;8938;53.546;9.954;2022-12-07T09:01:00;7.50;99.90
17639;DHT22;8938;53.546;9.954;2022-12-07T09:03:26;7.50;99.90
17639;DHT22;8938;53.546;9.954;2022-12-07T09:05:52;7.50;99.90
17639;DHT22;8938;53.546;9.954;2022-12-07T09:08:19;7.60;99.90
17639;DHT22;8938;53.546;9.954;2022-12-07T09:10:45;7.70;99.90
17639;DHT22;8938;53.546;9.954;2022-12-07T09:13:10;7.70;99.90
17639;DHT22;8938;53.546;9.954;2022-12-07T09:15:36;7.60;99.90
17639;DHT22;8938;53.546;9.954;2022-12-07T09:18:01;7.60;99.90
17639;DHT22;8938;53.546;9.954;2022-12-07T09:20:27;7.70;99.90
17639;DHT22;8938;53.546;9.954;2022-12-07T09:22:52;7.80;99.90
17639;DHT22;8938;53.546;9.954;2022-12-07T09:25:18;7.80;99.90
17639;DHT22;8938;53.546;9.954;2022-12-07T09:27:43;7.80;99.90
17639;DHT22;8938;53.546;9.954;2022-12-07T09:30:09;7.70;99.90
17639;DHT22;8938;53.546;9.954;2022-12-07T09:32:35;7.70;99.90
17639;DHT22;8938;53.546;9.954;2022-12-07T09:35:00;7.80;99.90
17639;DHT22;8938;53.546;9.954;2022-12-07T09:37:26;7.90;99.90
17639;DHT22;8938;53.546;9.954;2022-12-07T09:39:51;8.00;99.90
17639;DHT22;8938;53.546;9.954;2022-12-07T09:42:29;8.10;99.90
17639;DHT22;8938;53.546;9.954;2022-12-07T09:44:55;8.10;99.90
17639;DHT22;8938;53.546;9.954;2022-12-07T09:47:21;8.10;99.90
17639;DHT22;8938;53.546;9.954;2022-12-07T09:49:47;8.20;99.90
17639;DHT22;8938;53.546;9.954;2022-12-07T09:52:19;8.20;99.90
17639;DHT22;8938;53.546;9.954;2022-12-07T09:54:48;8.20;99.90
17639;DHT22;8938;53.546;9.954;2022-12-07T09:57:14;8.20;99.90
17639;DHT22;8938;53.546;9.954;2022-12-07T09:59:40;8.20;99.90
17639;DHT22;8938;53.546;9.954;2022-12-07T10:02:35;8.30;99.90
17639;DHT22;8938;53.546;9.954;2022-12-07T10:05:02;8.40;99.90
17639;DHT22;8938;53.546;9.954;2022-12-07T10:07:29;8.50;99.90
17639;DHT22;8938;53.546;9.954;2022-12-07T10:09:55;8.50;99.90
17639;DHT22;8938;53.546;9.954;2022-12-07T10:12:20;8.50;99.90
17639;DHT22;8938;53.546;9.954;2022-12-07T10:14:55;8.50;99.90
17639;DHT22;8938;53.546;9.954;2022-12-07T10:17:36;8.70;99.90
17639;DHT22;8938;53.546;9.954;2022-12-07T10:20:20;8.60;99.90
17639;DHT22;8938;53.546;9.954;2022-12-07T10:22:58;8.50;99.90
17639;DHT22;8938;53.546;9.954;2022-12-07T10:25:30;8.50;99.90
17639;DHT22;8938;53.546;9.954;2022-12-07T10:30:47;8.60;99.90
17639;DHT22;8938;53.546;9.954;2022-12-07T10:33:32;8.50;99.90
17639;DHT22;8938;53.546;9.954;2022-12-07T10:38:26;8.40;99.90
17639;DHT22;8938;53.546;9.954;2022-12-07T10:43:29;8.40;99.90
17639;DHT22;8938;53.546;9.954;2022-12-07T10:56:20;8.40;99.90
17639;DHT22;8938;53.546;9.954;2022-12-07T11:02:20;8.60;99.90
17639;DHT22;8938;53.546;9.954;2022-12-07T11:05:13;8.70;99.90
17639;DHT22;8938;53.546;9.954;2022-12-07T11:10:23;8.80;99.90
17639;DHT22;8938;53.546;9.954;2022-12-07T11:16:00;8.70;99.90
17639;DHT22;8938;53.546;9.954;2022-12-07T11:18:52;8.60;99.90
17639;DHT22;8938;53.546;9.954;2022-12-07T11:29:38;8.70;99.90
17639;DHT22;8938;53.546;9.954;2022-12-07T11:35:42;8.80;99.90
17639;DHT22;8938;53.546;9.954;2022-12-07T11:38:17;8.60;99.90
17639;DHT22;8938;53.546;9.954;2022-12-07T11:40:48;8.60;99.90
17639;DHT22;8938;53.546;9.954;2022-12-07T11:43:32;8.60;99.90
17639;DHT22;8938;53.546;9.954;2022-12-07T11:46:08;8.60;99.90
17639;DHT22;8938;53.546;9.954;2022-12-07T11:51:07;8.70;99.90
17639;DHT22;8938;53.546;9.954;2022-12-07T11:53:44;8.70;99.90
17639;DHT22;8938;53.546;9.954;2022-12-07T11:56:16;8.70;99.90
17639;DHT22;8938;53.546;9.954;2022-12-07T12:03:47;8.70;99.90
17639;DHT22;8938;53.546;9.954;2022-12-07T12:06:14;8.70;99.90
17639;DHT22;8938;53.546;9.954;2022-12-07T12:08:50;8.80;99.90
17639;DHT22;8938;53.546;9.954;2022-12-07T12:14:26;8.90;99.90
17639;DHT22;8938;53.546;9.954;2022-12-07T12:17:25;8.90;99.90
17639;DHT22;8938;53.546;9.954;2022-12-07T12:23:07;8.80;99.90
17639;DHT22;8938;53.546;9.954;2022-12-07T12:25:42;8.80;99.90
17639;DHT22;8938;53.546;9.954;2022-12-07T12:31:13;8.90;99.90
17639;DHT22;8938;53.546;9.954;2022-12-07T12:33:44;8.90;99.90
17639;DHT22;8938;53.546;9.954;2022-12-07T12:51:51;9.20;99.90
17639;DHT22;8938;53.546;9.954;2022-12-07T12:59:28;9.20;99.90
17639;DHT22;8938;53.546;9.954;2022-12-07T13:07:49;9.10;99.90
17639;DHT22;8938;53.546;9.954;2022-12-07T13:51:51;9.20;99.90
17639;DHT22;8938;53.546;9.954;2022-12-07T13:54:18;9.30;99.90
17639;DHT22;8938;53.546;9.954;2022-12-07T13:56:48;9.30;99.90
17639;DHT22;8938;53.546;9.954;2022-12-07T13:59:21;9.20;99.90
17639;DHT22;8938;53.546;9.954;2022-12-07T14:01:48;9.10;99.90
17639;DHT22;8938;53.546;9.954;2022-12-07T14:04:36;9.00;99.90
17639;DHT22;8938;53.546;9.954;2022-12-07T14:07:25;9.00;99.90
17639;DHT22;8938;53.546;9.954;2022-12-07T14:09:56;8.90;99.90
17639;DHT22;8938;53.546;9.954;2022-12-07T14:12:23;8.80;99.90
17639;DHT22;8938;53.546;9.954;2022-12-07T14:14:49;8.70;99.90
17639;DHT22;8938;53.546;9.954;2022-12-07T14:17:19;8.70;99.90
17639;DHT22;8938;53.546;9.954;2022-12-07T14:22:33;8.60;99.90
17639;DHT22;8938;53.546;9.954;2022-12-07T14:25:24;8.60;99.90
17639;DHT22;8938;53.546;9.954;2022-12-07T14:27:54;8.60;99.90
17639;DHT22;8938;53.546;9.954;2022-12-07T14:30:22;8.50;99.90
17639;DHT22;8938;53.546;9.954;2022-12-07T14:32:53;8.50;99.90
17639;DHT22;8938;53.546;9.954;2022-12-07T14:37:47;8.50;99.90
17639;DHT22;8938;53.546;9.954;2022-12-07T14:40:20;8.50;99.90
17639;DHT22;8938;53.546;9.954;2022-12-07T14:42:48;8.50;99.90
17639;DHT22;8938;53.546;9.954;2022-12-07T14:45:18;8.40;99.90
17639;DHT22;8938;53.546;9.954;2022-12-07T14:47:45;8.40;99.90
17639;DHT22;8938;53.546;9.954;2022-12-07T14:50:15;8.40;99.90
17639;DHT22;8938;53.546;9.954;2022-12-07T14:52:44;8.40;99.90
17639;DHT22;8938;53.546;9.954;2022-12-07T14:55:24;8.40;99.90
17639;DHT22;8938;53.546;9.954;2022-12-07T15:00:17;8.30;99.90
17639;DHT22;8938;53.546;9.954;2022-12-07T15:02:45;8.30;99.90
17639;DHT22;8938;53.546;9.954;2022-12-07T15:10:03;8.30;99.90
17639;DHT22;8938;53.546;9.954;2022-12-07T15:12:28;8.40;99.90
17639;DHT22;8938;53.546;9.954;2022-12-07T15:14:54;8.40;99.90
17639;DHT22;8938;53.546;9.954;2022-12-07T15:22:11;8.40;99.90
17639;DHT22;8938;53.546;9.954;2022-12-07T15:27:04;8.30;99.90
17639;DHT22;8938;53.546;9.954;2022-12-07T15:34:23;8.30;99.90
17639;DHT22;8938;53.546;9.954;2022-12-07T15:36:49;8.40;99.90
17639;DHT22;8938;53.546;9.954;2022-12-07T15:39:15;8.30;99.90
17639;DHT22;8938;53.546;9.954;2022-12-07T15:44:08;8.30;99.90
17639;DHT22;8938;53.546;9.954;2022-12-07T15:49:18;8.20;99.90
17639;DHT22;8938;53.546;9.954;2022-12-07T15:51:45;8.20;99.90
17639;DHT22;8938;53.546;9.954;2022-12-07T15:54:30;8.20;99.90
17639;DHT22;8938;53.546;9.954;2022-12-07T15:56:57;8.20;99.90
17639;DHT22;8938;53.546;9.954;2022-12-07T15:59:22;8.30;99.90
17639;DHT22;8938;53.546;9.954;2022-12-07T16:18:51;8.30;99.90
17639;DHT22;8938;53.546;9.954;2022-12-07T16:21:18;8.30;99.90
17639;DHT22;8938;53.546;9.954;2022-12-07T16:23:43;8.30;99.90
17639;DHT22;8938;53.546;9.954;2022-12-07T16:26:12;8.30;99.90
17639;DHT22;8938;53.546;9.954;2022-12-07T16:31:07;8.30;99.90
17639;DHT22;8938;53.546;9.954;2022-12-07T16:33:38;8.30;99.90
17639;DHT22;8938;53.546;9.954;2022-12-07T16:36:05;8.20;99.90
17639;DHT22;8938;53.546;9.954;2022-12-07T16:48:16;7.90;99.90
17639;DHT22;8938;53.546;9.954;2022-12-07T16:50:43;7.90;99.90
17639;DHT22;8938;53.546;9.954;2022-12-07T16:53:10;7.90;99.90
17639;DHT22;8938;53.546;9.954;2022-12-07T16:55:40;7.90;99.90
17639;DHT22;8938;53.546;9.954;2022-12-07T16:58:06;7.90;99.90
17639;DHT22;8938;53.546;9.954;2022-12-07T17:00:32;8.00;99.90
17639;DHT22;8938;53.546;9.954;2022-12-07T17:02:58;8.00;99.90
17639;DHT22;8938;53.546;9.954;2022-12-07T17:05:24;8.00;99.90
17639;DHT22;8938;53.546;9.954;2022-12-07T17:07:50;8.00;99.90
17639;DHT22;8938;53.546;9.954;2022-12-07T17:15:08;8.00;99.90
17639;DHT22;8938;53.546;9.954;2022-12-07T17:18:01;8.00;99.90
17639;DHT22;8938;53.546;9.954;2022-12-07T17:20:27;8.00;99.90
17639;DHT22;8938;53.546;9.954;2022-12-07T17:22:53;8.00;99.90
17639;DHT22;8938;53.546;9.954;2022-12-07T17:25:19;8.00;99.90
17639;DHT22;8938;53.546;9.954;2022-12-07T17:27:46;8.00;99.90
17639;DHT22;8938;53.546;9.954;2022-12-07T17:30:12;8.00;99.90
17639;DHT22;8938;53.546;9.954;2022-12-07T17:35:04;7.90;99.90
17639;DHT22;8938;53.546;9.954;2022-12-07T17:37:31;7.90;99.90
17639;DHT22;8938;53.546;9.954;2022-12-07T17:42:26;7.90;99.90
17639;DHT22;8938;53.546;9.954;2022-12-07T17:45:03;7.80;99.90
17639;DHT22;8938;53.546;9.954;2022-12-07T17:57:31;7.70;99.90
17639;DHT22;8938;53.546;9.954;2022-12-07T18:02:23;7.70;99.90
17639;DHT22;8938;53.546;9.954;2022-12-07T18:04:48;7.70;99.90
17639;DHT22;8938;53.546;9.954;2022-12-07T18:07:14;7.70;99.90
17639;DHT22;8938;53.546;9.954;2022-12-07T18:09:39;7.80;99.90
17639;DHT22;8938;53.546;9.954;2022-12-07T18:12:07;7.60;99.90
17639;DHT22;8938;53.546;9.954;2022-12-07T18:14:32;7.60;99.90
17639;DHT22;8938;53.546;9.954;2022-12-07T18:19:24;7.70;99.90
17639;DHT22;8938;53.546;9.954;2022-12-07T18:21:49;7.70;99.90
17639;DHT22;8938;53.546;9.954;2022-12-07T18:24:16;7.70;99.90
17639;DHT22;8938;53.546;9.954;2022-12-07T18:26:43;7.70;99.90
17639;DHT22;8938;53.546;9.954;2022-12-07T18:29:14;7.70;99.90
17639;DHT22;8938;53.546;9.954;2022-12-07T18:31:40;7.70;99.90
17639;DHT22;8938;53.546;9.954;2022-12-07T18:34:08;7.70;99.90
17639;DHT22;8938;53.546;9.954;2022-12-07T18:36:37;7.70;99.90
17639;DHT22;8938;53.546;9.954;2022-12-07T18:39:06;7.70;99.90
17639;DHT22;8938;53.546;9.954;2022-12-07T18:43:57;7.60;99.90
17639;DHT22;8938;53.546;9.954;2022-12-07T18:46:23;7.60;99.90
17639;DHT22;8938;53.546;9.954;2022-12-07T18:48:49;7.50;99.90
17639;DHT22;8938;53.546;9.954;2022-12-07T18:51:15;7.50;99.90
17639;DHT22;8938;53.546;9.954;2022-12-07T18:56:18;7.30;99.90
17639;DHT22;8938;53.546;9.954;2022-12-07T18:58:51;7.10;99.90
17639;DHT22;8938;53.546;9.954;2022-12-07T19:01:37;7.00;99.90
17639;DHT22;8938;53.546;9.954;2022-12-07T19:04:03;7.00;99.90
17639;DHT22;8938;53.546;9.954;2022-12-07T19:06:28;7.00;99.90
17639;DHT22;8938;53.546;9.954;2022-12-07T19:11:24;7.20;99.90
17639;DHT22;8938;53.546;9.954;2022-12-07T19:19:00;7.10;99.90
17639;DHT22;8938;53.546;9.954;2022-12-07T19:21:25;7.00;99.90
17639;DHT22;8938;53.546;9.954;2022-12-07T19:23:52;7.30;99.90
17639;DHT22;8938;53.546;9.954;2022-12-07T19:26:17;7.10;99.90
17639;DHT22;8938;53.546;9.954;2022-12-07T19:28:43;7.10;99.90
17639;DHT22;8938;53.546;9.954;2022-12-07T19:31:10;7.10;99.90
17639;DHT22;8938;53.546;9.954;2022-12-07T19:33:39;7.10;99.90
17639;DHT22;8938;53.546;9.954;2022-12-07T19:36:05;7.20;99.90
17639;DHT22;8938;53.546;9.954;2022-12-07T19:38:31;7.10;99.90
17639;DHT22;8938;53.546;9.954;2022-12-07T19:41:08;7.10;99.90
17639;DHT22;8938;53.546;9.954;2022-12-07T19:43:52;7.20;99.90
17639;DHT22;8938;53.546;9.954;2022-12-07T19:46:18;7.10;99.90
17639;DHT22;8938;53.546;9.954;2022-12-07T19:51:09;7.20;99.90
17639;DHT22;8938;53.546;9.954;2022-12-07T19:53:37;7.20;99.90
17639;DHT22;8938;53.546;9.954;2022-12-07T19:56:03;7.30;99.90
17639;DHT22;8938;53.546;9.954;2022-12-07T19:58:28;7.20;99.90
17639;DHT22;8938;53.546;9.954;2022-12-07T20:00:54;7.10;99.90
17639;DHT22;8938;53.546;9.954;2022-12-07T20:03:20;7.10;99.90
17639;DHT22;8938;53.546;9.954;2022-12-07T20:05:45;7.00;99.90
17639;DHT22;8938;53.546;9.954;2022-12-07T20:08:11;7.00;99.90
17639;DHT22;8938;53.546;9.954;2022-12-07T20:10:40;7.00;99.90
17639;DHT22;8938;53.546;9.954;2022-12-07T20:13:06;7.00;99.90
17639;DHT22;8938;53.546;9.954;2022-12-07T20:15:51;7.00;99.90
17639;DHT22;8938;53.546;9.954;2022-12-07T20:18:16;6.90;99.90
17639;DHT22;8938;53.546;9.954;2022-12-07T20:20:46;6.90;99.90
17639;DHT22;8938;53.546;9.954;2022-12-07T20:23:16;6.80;99.90